Terminal Aerodrome Forecast
Issued by NWS Wilmington, OH

Current Version | Previous Version | Text Only | Print | Product List | Glossary Off
Versions: 1 2 3 4 5 6 7 8 9 10 11 12 13 14 15 16 17 18 19 20 21 22 23 24 25 26 27

000
FTUS41 KILN 242300
TAFDAY
TAF
KDAY 242338Z 2500/2524 26006KT P6SM OVC019
      TEMPO 2500/2502 SCT019
     FM250200 24008KT P6SM OVC025
     FM251200 17006KT P6SM OVC025
      TEMPO 2514/2516 5SM -RA
     FM251600 10007KT 2SM -RA OVC010
     FM252100 08009KT 1SM -SN OVC006=

USA.gov is the U.S. government's official web portal to all federal, state and local government web resources and services.